sensor_id;sensor_type;location;lat;lon;timestamp;pressure;altitude;pressure_sealevel;temperature;humidity
7026;BME280;3554;42.132;24.786;2022-08-18T00:02:08;98928.06;;;26.79;100.00
7026;BME280;3554;42.132;24.786;2022-08-18T00:04:37;98926.91;;;26.73;100.00
7026;BME280;3554;42.132;24.786;2022-08-18T00:07:05;98925.03;;;26.74;100.00
7026;BME280;3554;42.132;24.786;2022-08-18T00:09:34;98917.19;;;26.64;100.00
7026;BME280;3554;42.132;24.786;2022-08-18T00:12:04;98916.03;;;26.59;100.00
7026;BME280;3554;42.132;24.786;2022-08-18T00:14:33;98924.28;;;26.57;100.00
7026;BME280;3554;42.132;24.786;2022-08-18T00:17:00;98933.19;;;26.50;100.00
7026;BME280;3554;42.132;24.786;2022-08-18T00:19:27;98925.81;;;26.43;100.00
7026;BME280;3554;42.132;24.786;2022-08-18T00:21:54;98936.00;;;26.56;100.00
7026;BME280;3554;42.132;24.786;2022-08-18T00:24:21;98928.00;;;26.40;100.00
7026;BME280;3554;42.132;24.786;2022-08-18T00:26:47;98926.84;;;26.42;100.00
7026;BME280;3554;42.132;24.786;2022-08-18T00:29:14;98924.81;;;26.44;100.00
7026;BME280;3554;42.132;24.786;2022-08-18T00:31:42;98932.03;;;26.44;100.00
7026;BME280;3554;42.132;24.786;2022-08-18T00:34:09;98934.03;;;26.50;100.00
7026;BME280;3554;42.132;24.786;2022-08-18T00:36:36;98920.06;;;26.55;100.00
7026;BME280;3554;42.132;24.786;2022-08-18T00:39:03;98857.00;;;25.96;100.00
7026;BME280;3554;42.132;24.786;2022-08-18T00:41:30;98922.00;;;26.30;100.00
7026;BME280;3554;42.132;24.786;2022-08-18T00:43:57;98922.84;;;26.30;100.00
7026;BME280;3554;42.132;24.786;2022-08-18T00:46:26;98919.63;;;26.35;100.00
7026;BME280;3554;42.132;24.786;2022-08-18T00:48:56;98924.00;;;26.36;100.00
7026;BME280;3554;42.132;24.786;2022-08-18T00:51:26;98922.69;;;26.32;100.00
7026;BME280;3554;42.132;24.786;2022-08-18T00:53:58;98911.75;;;26.33;100.00
7026;BME280;3554;42.132;24.786;2022-08-18T00:56:29;98916.81;;;26.20;100.00
7026;BME280;3554;42.132;24.786;2022-08-18T00:59:00;98908.31;;;26.09;100.00
7026;BME280;3554;42.132;24.786;2022-08-18T01:01:31;98917.84;;;26.11;100.00
7026;BME280;3554;42.132;24.786;2022-08-18T01:04:05;98918.69;;;25.96;100.00
7026;BME280;3554;42.132;24.786;2022-08-18T01:06:37;98921.72;;;25.93;100.00
7026;BME280;3554;42.132;24.786;2022-08-18T01:09:05;98926.06;;;26.10;100.00
7026;BME280;3554;42.132;24.786;2022-08-18T01:11:33;98916.03;;;26.04;100.00
7026;BME280;3554;42.132;24.786;2022-08-18T01:14:01;98913.81;;;25.99;100.00
7026;BME280;3554;42.132;24.786;2022-08-18T01:16:29;98925.91;;;26.11;100.00
7026;BME280;3554;42.132;24.786;2022-08-18T01:19:15;98938.69;;;26.09;100.00
7026;BME280;3554;42.132;24.786;2022-08-18T01:22:05;98930.94;;;26.06;100.00
7026;BME280;3554;42.132;24.786;2022-08-18T01:24:36;98927.75;;;25.95;100.00
7026;BME280;3554;42.132;24.786;2022-08-18T01:27:21;98931.28;;;25.87;100.00
7026;BME280;3554;42.132;24.786;2022-08-18T01:29:49;98940.19;;;25.88;100.00
7026;BME280;3554;42.132;24.786;2022-08-18T01:32:18;98901.13;;;25.69;100.00
7026;BME280;3554;42.132;24.786;2022-08-18T01:34:46;98927.94;;;25.77;100.00
7026;BME280;3554;42.132;24.786;2022-08-18T01:37:15;98925.75;;;25.89;100.00
7026;BME280;3554;42.132;24.786;2022-08-18T01:39:44;98922.88;;;25.90;100.00
7026;BME280;3554;42.132;24.786;2022-08-18T01:42:13;98923.91;;;25.89;100.00
7026;BME280;3554;42.132;24.786;2022-08-18T01:44:43;98928.09;;;25.84;100.00
7026;BME280;3554;42.132;24.786;2022-08-18T01:47:11;98925.41;;;25.92;100.00
7026;BME280;3554;42.132;24.786;2022-08-18T01:53:18;98920.38;;;25.89;100.00
7026;BME280;3554;42.132;24.786;2022-08-18T01:55:47;98919.72;;;25.87;100.00
7026;BME280;3554;42.132;24.786;2022-08-18T01:58:14;98933.63;;;25.82;100.00
7026;BME280;3554;42.132;24.786;2022-08-18T02:00:41;98934.63;;;25.89;100.00
7026;BME280;3554;42.132;24.786;2022-08-18T02:03:10;98916.38;;;25.77;100.00
7026;BME280;3554;42.132;24.786;2022-08-18T02:05:43;98932.78;;;25.98;100.00
7026;BME280;3554;42.132;24.786;2022-08-18T02:08:10;98927.94;;;25.85;100.00
7026;BME280;3554;42.132;24.786;2022-08-18T02:10:38;98919.03;;;25.85;100.00
7026;BME280;3554;42.132;24.786;2022-08-18T02:13:07;98906.47;;;25.85;100.00
7026;BME280;3554;42.132;24.786;2022-08-18T02:15:34;98919.72;;;25.87;100.00
7026;BME280;3554;42.132;24.786;2022-08-18T02:18:00;98928.28;;;25.82;100.00
7026;BME280;3554;42.132;24.786;2022-08-18T02:20:27;98929.25;;;25.81;100.00
7026;BME280;3554;42.132;24.786;2022-08-18T02:22:54;98931.94;;;25.81;100.00
7026;BME280;3554;42.132;24.786;2022-08-18T02:25:23;98930.97;;;25.82;100.00
7026;BME280;3554;42.132;24.786;2022-08-18T02:27:50;98929.94;;;25.83;100.00
7026;BME280;3554;42.132;24.786;2022-08-18T02:30:19;98922.56;;;25.69;100.00
7026;BME280;3554;42.132;24.786;2022-08-18T02:32:46;98922.75;;;25.76;100.00
7026;BME280;3554;42.132;24.786;2022-08-18T02:35:13;98920.22;;;25.82;100.00
7026;BME280;3554;42.132;24.786;2022-08-18T02:37:41;98915.72;;;25.67;100.00
7026;BME280;3554;42.132;24.786;2022-08-18T02:40:12;98921.75;;;25.77;100.00
7026;BME280;3554;42.132;24.786;2022-08-18T02:42:39;98922.06;;;25.66;100.00
7026;BME280;3554;42.132;24.786;2022-08-18T02:45:07;98911.38;;;25.74;100.00
7026;BME280;3554;42.132;24.786;2022-08-18T02:47:35;98922.75;;;25.76;100.00
7026;BME280;3554;42.132;24.786;2022-08-18T02:50:03;98923.06;;;25.73;100.00
7026;BME280;3554;42.132;24.786;2022-08-18T02:52:30;98924.09;;;25.72;100.00
7026;BME280;3554;42.132;24.786;2022-08-18T02:54:57;98926.78;;;25.72;100.00
7026;BME280;3554;42.132;24.786;2022-08-18T02:57:25;98927.44;;;25.74;100.00
7026;BME280;3554;42.132;24.786;2022-08-18T02:59:52;98929.78;;;25.61;100.00
7026;BME280;3554;42.132;24.786;2022-08-18T03:02:20;98916.53;;;25.51;100.00
7026;BME280;3554;42.132;24.786;2022-08-18T03:04:48;98922.91;;;25.58;100.00
7026;BME280;3554;42.132;24.786;2022-08-18T03:07:15;98927.09;;;25.61;100.00
7026;BME280;3554;42.132;24.786;2022-08-18T03:09:42;98920.91;;;25.52;100.00
7026;BME280;3554;42.132;24.786;2022-08-18T03:12:09;98932.13;;;25.56;100.00
7026;BME280;3554;42.132;24.786;2022-08-18T03:14:36;98927.47;;;25.58;100.00
7026;BME280;3554;42.132;24.786;2022-08-18T03:17:05;98931.97;;;25.57;100.00
7026;BME280;3554;42.132;24.786;2022-08-18T03:19:33;98870.13;;;25.18;100.00
7026;BME280;3554;42.132;24.786;2022-08-18T03:22:02;98937.19;;;25.67;100.00
7026;BME280;3554;42.132;24.786;2022-08-18T03:24:30;98941.53;;;25.68;100.00
7026;BME280;3554;42.132;24.786;2022-08-18T03:26:58;98937.19;;;25.67;100.00
7026;BME280;3554;42.132;24.786;2022-08-18T03:29:25;98938.00;;;25.75;100.00
7026;BME280;3554;42.132;24.786;2022-08-18T03:31:52;98940.34;;;25.78;100.00
7026;BME280;3554;42.132;24.786;2022-08-18T03:34:19;98933.81;;;25.73;100.00
7026;BME280;3554;42.132;24.786;2022-08-18T03:36:48;98906.50;;;25.45;100.00
7026;BME280;3554;42.132;24.786;2022-08-18T03:39:18;98936.31;;;25.74;100.00
7026;BME280;3554;42.132;24.786;2022-08-18T03:41:49;98931.13;;;25.73;100.00
7026;BME280;3554;42.132;24.786;2022-08-18T03:44:20;98942.03;;;25.79;100.00
7026;BME280;3554;42.132;24.786;2022-08-18T03:46:47;98937.81;;;25.85;100.00
7026;BME280;3554;42.132;24.786;2022-08-18T03:49:15;98949.53;;;25.92;100.00
7026;BME280;3554;42.132;24.786;2022-08-18T03:51:44;98943.03;;;26.18;100.00
7026;BME280;3554;42.132;24.786;2022-08-18T03:54:12;98951.84;;;26.35;100.00
7026;BME280;3554;42.132;24.786;2022-08-18T03:56:43;98923.34;;;26.34;100.00
7026;BME280;3554;42.132;24.786;2022-08-18T03:59:13;98951.75;;;26.75;100.00
7026;BME280;3554;42.132;24.786;2022-08-18T04:01:42;98943.28;;;26.86;100.00
7026;BME280;3554;42.132;24.786;2022-08-18T04:04:11;98946.16;;;27.15;99.46
7026;BME280;3554;42.132;24.786;2022-08-18T04:06:41;98945.66;;;27.20;98.11
7026;BME280;3554;42.132;24.786;2022-08-18T04:09:12;98951.34;;;27.48;97.19
7026;BME280;3554;42.132;24.786;2022-08-18T04:11:42;98945.31;;;27.68;94.51
7026;BME280;3554;42.132;24.786;2022-08-18T04:14:10;98956.78;;;27.85;93.13
7026;BME280;3554;42.132;24.786;2022-08-18T04:16:37;98951.47;;;27.99;92.04
7026;BME280;3554;42.132;24.786;2022-08-18T04:19:05;98933.03;;;27.88;90.87
7026;BME280;3554;42.132;24.786;2022-08-18T04:21:35;98956.84;;;27.99;90.17
7026;BME280;3554;42.132;24.786;2022-08-18T04:24:03;98957.16;;;28.19;88.77
7026;BME280;3554;42.132;24.786;2022-08-18T04:26:33;98961.53;;;28.34;87.62
7026;BME280;3554;42.132;24.786;2022-08-18T04:29:02;98975.97;;;28.56;86.11
7026;BME280;3554;42.132;24.786;2022-08-18T04:31:30;98976.72;;;28.79;85.23
7026;BME280;3554;42.132;24.786;2022-08-18T04:33:58;98982.56;;;28.83;84.17
7026;BME280;3554;42.132;24.786;2022-08-18T04:36:26;98979.13;;;28.89;82.30
7026;BME280;3554;42.132;24.786;2022-08-18T04:38:54;98981.81;;;28.89;83.41
7026;BME280;3554;42.132;24.786;2022-08-18T04:41:22;98977.22;;;29.04;81.38
7026;BME280;3554;42.132;24.786;2022-08-18T04:43:52;98988.22;;;28.88;81.92
7026;BME280;3554;42.132;24.786;2022-08-18T04:46:20;98974.19;;;28.92;81.70
7026;BME280;3554;42.132;24.786;2022-08-18T04:48:47;98979.38;;;29.23;79.40
7026;BME280;3554;42.132;24.786;2022-08-18T04:51:16;98981.97;;;29.52;76.97
7026;BME280;3554;42.132;24.786;2022-08-18T04:53:44;98977.56;;;29.66;75.15
7026;BME280;3554;42.132;24.786;2022-08-18T04:56:16;98945.28;;;29.58;72.48
7026;BME280;3554;42.132;24.786;2022-08-18T04:58:46;98917.09;;;29.81;70.00
7026;BME280;3554;42.132;24.786;2022-08-18T05:01:17;98970.50;;;29.86;70.96
7026;BME280;3554;42.132;24.786;2022-08-18T05:03:46;98987.06;;;30.04;70.48
7026;BME280;3554;42.132;24.786;2022-08-18T05:06:14;98991.53;;;30.18;69.29
7026;BME280;3554;42.132;24.786;2022-08-18T05:08:40;98979.41;;;30.07;70.10
7026;BME280;3554;42.132;24.786;2022-08-18T05:11:08;98975.25;;;29.84;71.17
7026;BME280;3554;42.132;24.786;2022-08-18T05:13:35;98986.19;;;29.97;71.25
7026;BME280;3554;42.132;24.786;2022-08-18T05:16:03;98986.50;;;30.08;70.42
7026;BME280;3554;42.132;24.786;2022-08-18T05:18:32;98965.25;;;29.78;72.08
7026;BME280;3554;42.132;24.786;2022-08-18T05:21:02;98992.09;;;30.28;69.15
7026;BME280;3554;42.132;24.786;2022-08-18T05:23:28;98983.34;;;30.26;69.14
7026;BME280;3554;42.132;24.786;2022-08-18T05:25:57;98988.53;;;30.89;66.01
7026;BME280;3554;42.132;24.786;2022-08-18T05:28:25;98984.84;;;30.97;63.42
7026;BME280;3554;42.132;24.786;2022-08-18T05:30:52;98990.88;;;30.65;65.14
7026;BME280;3554;42.132;24.786;2022-08-18T05:33:19;98996.25;;;30.58;66.52
7026;BME280;3554;42.132;24.786;2022-08-18T05:35:48;98976.38;;;30.72;65.53
7026;BME280;3554;42.132;24.786;2022-08-18T05:38:28;98996.16;;;30.79;64.23
7026;BME280;3554;42.132;24.786;2022-08-18T05:41:03;98990.56;;;30.81;63.41
7026;BME280;3554;42.132;24.786;2022-08-18T05:43:32;98985.66;;;30.63;63.29
7026;BME280;3554;42.132;24.786;2022-08-18T05:46:00;98976.75;;;30.69;62.23
7026;BME280;3554;42.132;24.786;2022-08-18T05:48:29;98988.03;;;30.79;62.61
7026;BME280;3554;42.132;24.786;2022-08-18T05:50:57;98994.13;;;30.81;62.28
7026;BME280;3554;42.132;24.786;2022-08-18T05:53:26;98977.91;;;30.81;61.05
7026;BME280;3554;42.132;24.786;2022-08-18T05:56:09;98984.41;;;30.93;60.66
7026;BME280;3554;42.132;24.786;2022-08-18T05:58:54;98992.13;;;31.03;62.03
7026;BME280;3554;42.132;24.786;2022-08-18T06:01:27;98985.41;;;30.86;61.89
7026;BME280;3554;42.132;24.786;2022-08-18T06:04:01;98991.03;;;30.91;61.24
7026;BME280;3554;42.132;24.786;2022-08-18T06:06:32;98987.94;;;30.94;61.30
7026;BME280;3554;42.132;24.786;2022-08-18T06:09:12;98873.47;;;30.33;60.89
7026;BME280;3554;42.132;24.786;2022-08-18T06:11:43;98985.28;;;31.54;59.26
7026;BME280;3554;42.132;24.786;2022-08-18T06:14:10;98993.19;;;31.62;58.21
7026;BME280;3554;42.132;24.786;2022-08-18T06:16:54;98989.41;;;31.50;58.41
7026;BME280;3554;42.132;24.786;2022-08-18T06:19:34;98996.81;;;31.95;57.68
7026;BME280;3554;42.132;24.786;2022-08-18T06:22:15;98989.84;;;31.53;58.18
7026;BME280;3554;42.132;24.786;2022-08-18T06:24:49;98999.47;;;31.76;58.69
7026;BME280;3554;42.132;24.786;2022-08-18T06:27:21;99004.13;;;31.95;56.29
7026;BME280;3554;42.132;24.786;2022-08-18T06:30:01;99011.00;;;32.23;55.54
7026;BME280;3554;42.132;24.786;2022-08-18T06:32:47;99004.75;;;32.36;53.84
7026;BME280;3554;42.132;24.786;2022-08-18T06:35:28;99006.59;;;32.35;54.01
7026;BME280;3554;42.132;24.786;2022-08-18T06:38:06;99015.78;;;32.74;51.64
7026;BME280;3554;42.132;24.786;2022-08-18T06:41:01;99006.00;;;32.53;51.26
7026;BME280;3554;42.132;24.786;2022-08-18T06:43:30;99014.09;;;32.60;51.60
7026;BME280;3554;42.132;24.786;2022-08-18T06:45:58;99006.19;;;32.38;52.35
7026;BME280;3554;42.132;24.786;2022-08-18T06:48:31;99003.50;;;32.45;52.82
7026;BME280;3554;42.132;24.786;2022-08-18T06:51:00;99001.38;;;32.08;53.46
7026;BME280;3554;42.132;24.786;2022-08-18T06:53:54;99005.16;;;32.26;52.95
7026;BME280;3554;42.132;24.786;2022-08-18T06:56:26;99010.81;;;32.44;52.82
7026;BME280;3554;42.132;24.786;2022-08-18T06:58:54;99002.22;;;32.28;53.25
7026;BME280;3554;42.132;24.786;2022-08-18T07:01:39;99007.06;;;32.52;53.00
7026;BME280;3554;42.132;24.786;2022-08-18T07:04:05;99006.56;;;32.81;52.47
7026;BME280;3554;42.132;24.786;2022-08-18T07:06:32;99012.16;;;32.99;51.69
7026;BME280;3554;42.132;24.786;2022-08-18T07:09:17;99005.91;;;33.05;51.88
7026;BME280;3554;42.132;24.786;2022-08-18T07:12:00;99007.72;;;33.11;51.56
7026;BME280;3554;42.132;24.786;2022-08-18T07:14:27;99000.31;;;32.81;51.71
7026;BME280;3554;42.132;24.786;2022-08-18T07:17:07;98995.31;;;32.71;52.19
7026;BME280;3554;42.132;24.786;2022-08-18T07:19:35;99000.75;;;32.58;51.94
7026;BME280;3554;42.132;24.786;2022-08-18T07:22:05;98989.50;;;32.61;52.96
7026;BME280;3554;42.132;24.786;2022-08-18T07:24:36;99009.06;;;32.89;51.80
7026;BME280;3554;42.132;24.786;2022-08-18T07:27:09;99005.47;;;33.08;52.77
7026;BME280;3554;42.132;24.786;2022-08-18T07:29:40;98892.34;;;32.51;51.34
7026;BME280;3554;42.132;24.786;2022-08-18T07:32:26;98999.59;;;33.11;50.10
7026;BME280;3554;42.132;24.786;2022-08-18T07:34:57;98986.06;;;33.05;50.05
7026;BME280;3554;42.132;24.786;2022-08-18T07:37:29;99004.94;;;33.37;50.42
7026;BME280;3554;42.132;24.786;2022-08-18T07:40:02;99001.50;;;33.55;49.30
7026;BME280;3554;42.132;24.786;2022-08-18T07:42:34;99004.81;;;33.64;49.31
7026;BME280;3554;42.132;24.786;2022-08-18T07:45:09;98998.00;;;33.41;48.02
7026;BME280;3554;42.132;24.786;2022-08-18T07:47:43;99003.03;;;33.38;49.25
7026;BME280;3554;42.132;24.786;2022-08-18T07:50:11;99000.94;;;33.40;49.48
7026;BME280;3554;42.132;24.786;2022-08-18T07:52:45;99000.38;;;33.69;49.93
7026;BME280;3554;42.132;24.786;2022-08-18T07:55:28;99002.50;;;33.92;48.23
7026;BME280;3554;42.132;24.786;2022-08-18T07:57:59;98994.41;;;34.16;48.15
7026;BME280;3554;42.132;24.786;2022-08-18T08:00:33;98998.59;;;34.43;47.87
7026;BME280;3554;42.132;24.786;2022-08-18T08:03:10;99005.72;;;34.38;47.72
7026;BME280;3554;42.132;24.786;2022-08-18T08:05:48;98995.00;;;34.18;47.83
7026;BME280;3554;42.132;24.786;2022-08-18T08:08:20;98991.50;;;34.18;46.86
7026;BME280;3554;42.132;24.786;2022-08-18T08:10:56;98996.09;;;34.17;47.39
7026;BME280;3554;42.132;24.786;2022-08-18T08:13:34;98989.34;;;34.20;44.26
7026;BME280;3554;42.132;24.786;2022-08-18T08:16:09;98986.09;;;34.61;43.90
7026;BME280;3554;42.132;24.786;2022-08-18T08:18:48;98984.34;;;34.66;46.24
7026;BME280;3554;42.132;24.786;2022-08-18T08:21:21;98975.75;;;34.69;44.68
7026;BME280;3554;42.132;24.786;2022-08-18T08:23:54;98961.22;;;34.75;44.19
7026;BME280;3554;42.132;24.786;2022-08-18T08:26:37;98977.56;;;34.93;42.38
7026;BME280;3554;42.132;24.786;2022-08-18T08:29:16;98972.88;;;35.00;41.05
7026;BME280;3554;42.132;24.786;2022-08-18T08:31:49;98974.63;;;34.95;40.81
7026;BME280;3554;42.132;24.786;2022-08-18T08:34:23;98993.44;;;34.96;38.59
7026;BME280;3554;42.132;24.786;2022-08-18T08:36:57;98981.44;;;35.04;39.73
7026;BME280;3554;42.132;24.786;2022-08-18T08:39:34;98985.28;;;34.96;40.26
7026;BME280;3554;42.132;24.786;2022-08-18T08:42:08;98981.50;;;34.97;39.89
7026;BME280;3554;42.132;24.786;2022-08-18T08:44:42;98968.63;;;34.86;39.04
7026;BME280;3554;42.132;24.786;2022-08-18T08:47:15;98978.22;;;34.71;39.97
7026;BME280;3554;42.132;24.786;2022-08-18T08:49:46;98985.28;;;34.78;38.28
7026;BME280;3554;42.132;24.786;2022-08-18T08:52:20;98964.75;;;34.58;39.05
7026;BME280;3554;42.132;24.786;2022-08-18T08:54:52;98972.03;;;34.64;38.60
7026;BME280;3554;42.132;24.786;2022-08-18T08:57:24;98966.84;;;34.80;36.85
7026;BME280;3554;42.132;24.786;2022-08-18T08:59:55;98970.50;;;34.86;36.14
7026;BME280;3554;42.132;24.786;2022-08-18T09:02:59;98969.00;;;34.90;37.38
7026;BME280;3554;42.132;24.786;2022-08-18T09:05:34;98978.69;;;35.22;35.90
7026;BME280;3554;42.132;24.786;2022-08-18T09:08:17;98977.06;;;35.32;35.53
7026;BME280;3554;42.132;24.786;2022-08-18T09:11:04;98968.31;;;35.30;35.67
7026;BME280;3554;42.132;24.786;2022-08-18T09:16:44;98969.31;;;35.18;35.07
7026;BME280;3554;42.132;24.786;2022-08-18T09:19:29;98966.19;;;35.32;34.78
7026;BME280;3554;42.132;24.786;2022-08-18T09:22:06;98964.06;;;35.34;34.62
7026;BME280;3554;42.132;24.786;2022-08-18T09:24:39;98955.91;;;35.34;33.43
7026;BME280;3554;42.132;24.786;2022-08-18T09:27:24;98952.44;;;35.45;33.84
7026;BME280;3554;42.132;24.786;2022-08-18T09:29:57;98954.38;;;35.57;33.92
7026;BME280;3554;42.132;24.786;2022-08-18T09:33:00;98946.53;;;35.30;33.80
7026;BME280;3554;42.132;24.786;2022-08-18T09:35:42;98948.56;;;35.65;33.59
7026;BME280;3554;42.132;24.786;2022-08-18T09:38:15;98955.94;;;35.76;32.93
7026;BME280;3554;42.132;24.786;2022-08-18T09:41:06;98948.13;;;35.79;33.41
7026;BME280;3554;42.132;24.786;2022-08-18T09:44:05;98954.53;;;35.85;33.20
7026;BME280;3554;42.132;24.786;2022-08-18T09:46:53;98914.22;;;35.64;33.91
7026;BME280;3554;42.132;24.786;2022-08-18T09:49:42;98950.19;;;35.42;33.48
7026;BME280;3554;42.132;24.786;2022-08-18T09:55:42;98936.69;;;35.47;33.68
7026;BME280;3554;42.132;24.786;2022-08-18T09:58:25;98940.94;;;35.55;34.75
7026;BME280;3554;42.132;24.786;2022-08-18T10:01:37;98938.75;;;35.64;34.63
7026;BME280;3554;42.132;24.786;2022-08-18T10:04:26;98929.97;;;35.62;34.70
7026;BME280;3554;42.132;24.786;2022-08-18T10:07:13;98927.78;;;35.82;35.03
7026;BME280;3554;42.132;24.786;2022-08-18T10:09:46;98925.63;;;35.84;34.93
7026;BME280;3554;42.132;24.786;2022-08-18T10:15:34;98918.03;;;35.86;35.12
7026;BME280;3554;42.132;24.786;2022-08-18T10:18:35;98912.00;;;35.84;34.80
7026;BME280;3554;42.132;24.786;2022-08-18T10:21:10;98909.81;;;35.51;35.00
7026;BME280;3554;42.132;24.786;2022-08-18T10:23:55;98918.44;;;35.89;34.64
7026;BME280;3554;42.132;24.786;2022-08-18T10:29:53;98902.38;;;35.70;34.96
7026;BME280;3554;42.132;24.786;2022-08-18T10:32:42;98910.31;;;35.71;35.21
7026;BME280;3554;42.132;24.786;2022-08-18T10:38:41;98915.47;;;35.91;35.45
7026;BME280;3554;42.132;24.786;2022-08-18T10:41:22;98915.97;;;35.99;34.91
7026;BME280;3554;42.132;24.786;2022-08-18T10:43:51;98908.81;;;35.87;34.73
7026;BME280;3554;42.132;24.786;2022-08-18T10:46:22;98903.31;;;36.05;34.61
7026;BME280;3554;42.132;24.786;2022-08-18T10:48:58;98897.09;;;35.98;34.80
7026;BME280;3554;42.132;24.786;2022-08-18T10:51:34;98899.97;;;36.14;34.74
7026;BME280;3554;42.132;24.786;2022-08-18T10:54:11;98910.63;;;36.16;34.38
7026;BME280;3554;42.132;24.786;2022-08-18T10:56:45;98899.25;;;35.96;33.89
7026;BME280;3554;42.132;24.786;2022-08-18T10:59:19;98901.75;;;36.09;33.84
7026;BME280;3554;42.132;24.786;2022-08-18T11:04:40;98886.41;;;35.85;34.01
7026;BME280;3554;42.132;24.786;2022-08-18T11:07:09;98885.03;;;36.17;34.88
7026;BME280;3554;42.132;24.786;2022-08-18T11:09:38;98898.44;;;36.18;34.42
7026;BME280;3554;42.132;24.786;2022-08-18T11:12:10;98888.09;;;36.32;33.72
7026;BME280;3554;42.132;24.786;2022-08-18T11:15:04;98889.31;;;36.13;32.96
7026;BME280;3554;42.132;24.786;2022-08-18T11:17:43;98884.06;;;36.00;32.63
7026;BME280;3554;42.132;24.786;2022-08-18T11:20:15;98885.50;;;36.25;32.40
7026;BME280;3554;42.132;24.786;2022-08-18T11:22:51;98879.66;;;36.33;32.19
7026;BME280;3554;42.132;24.786;2022-08-18T11:25:24;98890.38;;;36.46;32.68
7026;BME280;3554;42.132;24.786;2022-08-18T11:27:52;98879.44;;;36.23;32.65
7026;BME280;3554;42.132;24.786;2022-08-18T11:30:20;98824.94;;;36.12;33.10
7026;BME280;3554;42.132;24.786;2022-08-18T11:32:48;98873.16;;;36.34;32.71
7026;BME280;3554;42.132;24.786;2022-08-18T11:35:20;98869.88;;;36.44;32.70
7026;BME280;3554;42.132;24.786;2022-08-18T11:37:50;98868.41;;;36.53;32.94
7026;BME280;3554;42.132;24.786;2022-08-18T11:40:27;98859.19;;;36.31;32.80
7026;BME280;3554;42.132;24.786;2022-08-18T11:42:59;98860.50;;;36.40;33.51
7026;BME280;3554;42.132;24.786;2022-08-18T11:45:32;98853.22;;;36.57;33.63
7026;BME280;3554;42.132;24.786;2022-08-18T11:48:10;98857.13;;;36.61;33.46
7026;BME280;3554;42.132;24.786;2022-08-18T11:50:45;98854.06;;;36.46;33.19
7026;BME280;3554;42.132;24.786;2022-08-18T11:53:15;98852.28;;;36.28;33.68
7026;BME280;3554;42.132;24.786;2022-08-18T11:56:01;98850.00;;;36.60;33.57
7026;BME280;3554;42.132;24.786;2022-08-18T11:58:40;98850.38;;;36.64;32.62
7026;BME280;3554;42.132;24.786;2022-08-18T12:01:08;98850.56;;;36.74;32.73
7026;BME280;3554;42.132;24.786;2022-08-18T12:03:40;98842.59;;;36.84;33.02
7026;BME280;3554;42.132;24.786;2022-08-18T12:06:21;98846.88;;;36.40;32.10
7026;BME280;3554;42.132;24.786;2022-08-18T12:08:55;98841.72;;;36.32;33.43
7026;BME280;3554;42.132;24.786;2022-08-18T12:11:25;98816.22;;;36.49;32.49
7026;BME280;3554;42.132;24.786;2022-08-18T12:14:05;98837.34;;;36.94;32.47
7026;BME280;3554;42.132;24.786;2022-08-18T12:16:36;98836.53;;;36.93;32.52
7026;BME280;3554;42.132;24.786;2022-08-18T12:19:06;98830.25;;;36.81;31.83
7026;BME280;3554;42.132;24.786;2022-08-18T12:21:36;98829.38;;;36.92;32.00
7026;BME280;3554;42.132;24.786;2022-08-18T12:24:05;98819.06;;;36.94;31.95
7026;BME280;3554;42.132;24.786;2022-08-18T12:26:35;98828.38;;;37.10;31.56
7026;BME280;3554;42.132;24.786;2022-08-18T12:29:03;98782.19;;;36.80;30.71
7026;BME280;3554;42.132;24.786;2022-08-18T12:31:30;98818.94;;;37.01;30.98
7026;BME280;3554;42.132;24.786;2022-08-18T12:33:57;98795.06;;;36.96;31.14
7026;BME280;3554;42.132;24.786;2022-08-18T12:36:24;98820.44;;;37.25;30.33
7026;BME280;3554;42.132;24.786;2022-08-18T12:38:54;98818.81;;;37.40;29.85
7026;BME280;3554;42.132;24.786;2022-08-18T12:41:21;98812.13;;;37.31;30.42
7026;BME280;3554;42.132;24.786;2022-08-18T12:43:48;98813.63;;;37.11;30.91
7026;BME280;3554;42.132;24.786;2022-08-18T12:46:19;98812.66;;;37.17;30.94
7026;BME280;3554;42.132;24.786;2022-08-18T12:48:45;98812.94;;;37.32;30.59
7026;BME280;3554;42.132;24.786;2022-08-18T12:51:12;98818.97;;;37.67;30.73
7026;BME280;3554;42.132;24.786;2022-08-18T12:53:40;98804.03;;;37.36;30.18
7026;BME280;3554;42.132;24.786;2022-08-18T12:56:11;98814.28;;;37.46;30.07
7026;BME280;3554;42.132;24.786;2022-08-18T12:58:42;98821.97;;;37.32;27.67
7026;BME280;3554;42.132;24.786;2022-08-18T13:01:09;98800.16;;;37.21;29.05
7026;BME280;3554;42.132;24.786;2022-08-18T13:03:37;98803.84;;;36.70;29.32
7026;BME280;3554;42.132;24.786;2022-08-18T13:06:04;98800.03;;;36.83;28.74
7026;BME280;3554;42.132;24.786;2022-08-18T13:08:31;98804.63;;;36.42;29.03
7026;BME280;3554;42.132;24.786;2022-08-18T13:10:58;98802.72;;;36.43;29.42
7026;BME280;3554;42.132;24.786;2022-08-18T13:13:25;98797.69;;;36.63;29.36
7026;BME280;3554;42.132;24.786;2022-08-18T13:15:53;98803.75;;;36.93;29.55
7026;BME280;3554;42.132;24.786;2022-08-18T13:18:20;98806.16;;;36.90;28.76
7026;BME280;3554;42.132;24.786;2022-08-18T13:20:48;98807.97;;;36.33;28.93
7026;BME280;3554;42.132;24.786;2022-08-18T13:23:15;98796.19;;;36.55;28.50
7026;BME280;3554;42.132;24.786;2022-08-18T13:25:43;98802.75;;;36.71;28.62
7026;BME280;3554;42.132;24.786;2022-08-18T13:28:10;98791.72;;;36.38;28.51
7026;BME280;3554;42.132;24.786;2022-08-18T13:30:37;98799.47;;;35.95;29.16
7026;BME280;3554;42.132;24.786;2022-08-18T13:33:03;98806.06;;;36.22;29.43
7026;BME280;3554;42.132;24.786;2022-08-18T13:35:30;98803.84;;;36.19;29.20
7026;BME280;3554;42.132;24.786;2022-08-18T13:37:58;98812.16;;;35.89;29.91
7026;BME280;3554;42.132;24.786;2022-08-18T13:40:25;98799.94;;;36.03;30.34
7026;BME280;3554;42.132;24.786;2022-08-18T13:42:52;98808.09;;;36.15;29.22
7026;BME280;3554;42.132;24.786;2022-08-18T13:45:20;98797.06;;;36.33;29.83
7026;BME280;3554;42.132;24.786;2022-08-18T13:47:48;98790.81;;;36.61;29.28
7026;BME280;3554;42.132;24.786;2022-08-18T13:50:15;98801.72;;;37.00;28.89
7026;BME280;3554;42.132;24.786;2022-08-18T13:52:43;98796.16;;;36.67;28.79
7026;BME280;3554;42.132;24.786;2022-08-18T13:55:13;98795.31;;;36.67;28.58
7026;BME280;3554;42.132;24.786;2022-08-18T13:57:41;98796.88;;;36.91;28.52